sensor_id;sensor_type;location;lat;lon;timestamp;temperature;humidity
22185;DHT22;11258;52.516;13.318;2022-08-01T00:01:43;23.60;99.90
22185;DHT22;11258;52.516;13.318;2022-08-01T00:04:08;23.50;99.90
22185;DHT22;11258;52.516;13.318;2022-08-01T00:06:34;23.50;99.90
22185;DHT22;11258;52.516;13.318;2022-08-01T00:08:59;23.40;99.90
22185;DHT22;11258;52.516;13.318;2022-08-01T00:11:25;23.40;99.90
22185;DHT22;11258;52.516;13.318;2022-08-01T00:13:50;23.30;99.90
22185;DHT22;11258;52.516;13.318;2022-08-01T00:16:16;23.30;99.90
22185;DHT22;11258;52.516;13.318;2022-08-01T00:18:42;23.30;99.90
22185;DHT22;11258;52.516;13.318;2022-08-01T00:21:07;23.20;99.90
22185;DHT22;11258;52.516;13.318;2022-08-01T00:23:33;23.20;99.90
22185;DHT22;11258;52.516;13.318;2022-08-01T00:25:58;23.20;99.90
22185;DHT22;11258;52.516;13.318;2022-08-01T00:28:24;23.30;99.90
22185;DHT22;11258;52.516;13.318;2022-08-01T00:30:50;23.30;99.90
22185;DHT22;11258;52.516;13.318;2022-08-01T00:33:15;23.10;99.90
22185;DHT22;11258;52.516;13.318;2022-08-01T00:35:41;23.10;99.90
22185;DHT22;11258;52.516;13.318;2022-08-01T00:38:06;23.10;99.90
22185;DHT22;11258;52.516;13.318;2022-08-01T00:40:32;23.00;99.90
22185;DHT22;11258;52.516;13.318;2022-08-01T00:42:58;23.00;99.90
22185;DHT22;11258;52.516;13.318;2022-08-01T00:45:23;22.90;99.90
22185;DHT22;11258;52.516;13.318;2022-08-01T00:47:49;22.80;99.90
22185;DHT22;11258;52.516;13.318;2022-08-01T00:50:15;22.80;99.90
22185;DHT22;11258;52.516;13.318;2022-08-01T00:52:41;22.70;99.90
22185;DHT22;11258;52.516;13.318;2022-08-01T00:55:08;22.70;99.90
22185;DHT22;11258;52.516;13.318;2022-08-01T00:57:34;22.70;99.90
22185;DHT22;11258;52.516;13.318;2022-08-01T01:00:00;22.80;99.90
22185;DHT22;11258;52.516;13.318;2022-08-01T01:02:26;22.70;99.90
22185;DHT22;11258;52.516;13.318;2022-08-01T01:04:51;22.70;99.90
22185;DHT22;11258;52.516;13.318;2022-08-01T01:07:23;22.80;99.90
22185;DHT22;11258;52.516;13.318;2022-08-01T01:10:09;22.80;99.90
22185;DHT22;11258;52.516;13.318;2022-08-01T01:15:32;22.80;99.90
22185;DHT22;11258;52.516;13.318;2022-08-01T01:18:11;22.60;99.90
22185;DHT22;11258;52.516;13.318;2022-08-01T01:20:40;22.70;99.90
22185;DHT22;11258;52.516;13.318;2022-08-01T01:23:32;22.70;99.90
22185;DHT22;11258;52.516;13.318;2022-08-01T01:29:21;22.80;99.90
22185;DHT22;11258;52.516;13.318;2022-08-01T01:31:58;22.80;99.90
22185;DHT22;11258;52.516;13.318;2022-08-01T01:34:27;22.70;99.90
22185;DHT22;11258;52.516;13.318;2022-08-01T01:36:54;22.70;99.90
22185;DHT22;11258;52.516;13.318;2022-08-01T01:39:21;22.60;99.90
22185;DHT22;11258;52.516;13.318;2022-08-01T01:41:48;22.50;99.90
22185;DHT22;11258;52.516;13.318;2022-08-01T01:44:15;22.40;99.90
22185;DHT22;11258;52.516;13.318;2022-08-01T01:46:41;22.40;99.90
22185;DHT22;11258;52.516;13.318;2022-08-01T01:49:08;22.50;99.90
22185;DHT22;11258;52.516;13.318;2022-08-01T01:51:38;22.40;99.90
22185;DHT22;11258;52.516;13.318;2022-08-01T01:54:08;22.30;99.90
22185;DHT22;11258;52.516;13.318;2022-08-01T01:56:35;22.40;99.90
22185;DHT22;11258;52.516;13.318;2022-08-01T01:59:25;22.40;99.90
22185;DHT22;11258;52.516;13.318;2022-08-01T02:01:53;22.30;99.90
22185;DHT22;11258;52.516;13.318;2022-08-01T02:04:21;22.10;99.90
22185;DHT22;11258;52.516;13.318;2022-08-01T02:06:49;22.10;99.90
22185;DHT22;11258;52.516;13.318;2022-08-01T02:09:17;22.00;99.90
22185;DHT22;11258;52.516;13.318;2022-08-01T02:11:44;22.00;99.90
22185;DHT22;11258;52.516;13.318;2022-08-01T02:14:11;22.00;99.90
22185;DHT22;11258;52.516;13.318;2022-08-01T02:16:40;22.10;99.90
22185;DHT22;11258;52.516;13.318;2022-08-01T02:19:07;22.00;99.90
22185;DHT22;11258;52.516;13.318;2022-08-01T02:21:47;21.80;99.90
22185;DHT22;11258;52.516;13.318;2022-08-01T02:24:37;21.70;99.90
22185;DHT22;11258;52.516;13.318;2022-08-01T02:27:10;21.60;99.90
22185;DHT22;11258;52.516;13.318;2022-08-01T02:29:52;21.50;99.90
22185;DHT22;11258;52.516;13.318;2022-08-01T02:32:27;21.40;99.90
22185;DHT22;11258;52.516;13.318;2022-08-01T02:34:57;21.40;99.90
22185;DHT22;11258;52.516;13.318;2022-08-01T02:37:24;21.40;99.90
22185;DHT22;11258;52.516;13.318;2022-08-01T02:39:52;21.50;99.90
22185;DHT22;11258;52.516;13.318;2022-08-01T02:42:20;21.60;99.90
22185;DHT22;11258;52.516;13.318;2022-08-01T02:44:48;21.70;99.90
22185;DHT22;11258;52.516;13.318;2022-08-01T02:47:16;21.70;99.90
22185;DHT22;11258;52.516;13.318;2022-08-01T02:49:45;21.70;99.90
22185;DHT22;11258;52.516;13.318;2022-08-01T02:52:14;21.80;99.90
22185;DHT22;11258;52.516;13.318;2022-08-01T02:54:43;21.70;99.90
22185;DHT22;11258;52.516;13.318;2022-08-01T02:57:10;21.70;99.90
22185;DHT22;11258;52.516;13.318;2022-08-01T02:59:37;21.70;99.90
22185;DHT22;11258;52.516;13.318;2022-08-01T03:02:05;21.70;99.90
22185;DHT22;11258;52.516;13.318;2022-08-01T03:04:33;21.70;99.90
22185;DHT22;11258;52.516;13.318;2022-08-01T03:07:03;21.70;99.90
22185;DHT22;11258;52.516;13.318;2022-08-01T03:09:32;21.60;99.90
22185;DHT22;11258;52.516;13.318;2022-08-01T03:12:02;21.60;99.90
22185;DHT22;11258;52.516;13.318;2022-08-01T03:14:29;21.60;99.90
22185;DHT22;11258;52.516;13.318;2022-08-01T03:16:57;21.60;99.90
22185;DHT22;11258;52.516;13.318;2022-08-01T03:19:24;21.60;99.90
22185;DHT22;11258;52.516;13.318;2022-08-01T03:21:51;21.70;99.90
22185;DHT22;11258;52.516;13.318;2022-08-01T03:24:18;21.60;99.90
22185;DHT22;11258;52.516;13.318;2022-08-01T03:26:45;21.60;99.90
22185;DHT22;11258;52.516;13.318;2022-08-01T03:29:18;21.60;99.90
22185;DHT22;11258;52.516;13.318;2022-08-01T03:31:46;21.50;99.90
22185;DHT22;11258;52.516;13.318;2022-08-01T03:34:13;21.40;99.90
22185;DHT22;11258;52.516;13.318;2022-08-01T03:36:46;21.40;99.90
22185;DHT22;11258;52.516;13.318;2022-08-01T03:39:13;21.40;99.90
22185;DHT22;11258;52.516;13.318;2022-08-01T03:41:42;21.50;99.90
22185;DHT22;11258;52.516;13.318;2022-08-01T03:44:13;21.60;99.90
22185;DHT22;11258;52.516;13.318;2022-08-01T03:46:46;21.50;99.90
22185;DHT22;11258;52.516;13.318;2022-08-01T03:49:17;21.50;99.90
22185;DHT22;11258;52.516;13.318;2022-08-01T03:51:45;21.60;99.90
22185;DHT22;11258;52.516;13.318;2022-08-01T03:54:15;21.60;99.90
22185;DHT22;11258;52.516;13.318;2022-08-01T03:56:42;21.70;99.90
22185;DHT22;11258;52.516;13.318;2022-08-01T03:59:09;21.60;99.90
22185;DHT22;11258;52.516;13.318;2022-08-01T04:01:36;21.70;99.90
22185;DHT22;11258;52.516;13.318;2022-08-01T04:04:02;21.60;99.90
22185;DHT22;11258;52.516;13.318;2022-08-01T04:06:30;21.70;99.90
22185;DHT22;11258;52.516;13.318;2022-08-01T04:08:56;21.50;99.90
22185;DHT22;11258;52.516;13.318;2022-08-01T04:11:25;21.40;99.90
22185;DHT22;11258;52.516;13.318;2022-08-01T04:13:52;21.50;99.90
22185;DHT22;11258;52.516;13.318;2022-08-01T04:16:19;21.40;99.90
22185;DHT22;11258;52.516;13.318;2022-08-01T04:18:44;21.50;99.90
22185;DHT22;11258;52.516;13.318;2022-08-01T04:21:10;21.50;99.90
22185;DHT22;11258;52.516;13.318;2022-08-01T04:23:39;21.50;99.90
22185;DHT22;11258;52.516;13.318;2022-08-01T04:26:06;21.50;99.90
22185;DHT22;11258;52.516;13.318;2022-08-01T04:28:34;21.50;99.90
22185;DHT22;11258;52.516;13.318;2022-08-01T04:31:02;21.50;99.90
22185;DHT22;11258;52.516;13.318;2022-08-01T04:33:30;21.50;99.90
22185;DHT22;11258;52.516;13.318;2022-08-01T04:35:56;21.40;99.90
22185;DHT22;11258;52.516;13.318;2022-08-01T04:38:25;21.50;99.90
22185;DHT22;11258;52.516;13.318;2022-08-01T04:40:52;21.50;99.90
22185;DHT22;11258;52.516;13.318;2022-08-01T04:43:19;21.50;99.90
22185;DHT22;11258;52.516;13.318;2022-08-01T04:45:46;21.50;99.90
22185;DHT22;11258;52.516;13.318;2022-08-01T04:48:13;21.30;99.90
22185;DHT22;11258;52.516;13.318;2022-08-01T04:50:41;21.30;99.90
22185;DHT22;11258;52.516;13.318;2022-08-01T04:53:15;21.00;99.90
22185;DHT22;11258;52.516;13.318;2022-08-01T04:55:42;21.10;99.90
22185;DHT22;11258;52.516;13.318;2022-08-01T04:58:10;21.10;99.90
22185;DHT22;11258;52.516;13.318;2022-08-01T05:00:35;21.10;99.90
22185;DHT22;11258;52.516;13.318;2022-08-01T05:03:01;21.10;99.90
22185;DHT22;11258;52.516;13.318;2022-08-01T05:05:27;21.20;99.90
22185;DHT22;11258;52.516;13.318;2022-08-01T05:07:52;21.20;99.90
22185;DHT22;11258;52.516;13.318;2022-08-01T05:10:18;21.20;99.90
22185;DHT22;11258;52.516;13.318;2022-08-01T05:12:43;21.20;99.90
22185;DHT22;11258;52.516;13.318;2022-08-01T05:15:09;21.20;99.90
22185;DHT22;11258;52.516;13.318;2022-08-01T05:17:34;21.10;99.90
22185;DHT22;11258;52.516;13.318;2022-08-01T05:20:00;21.20;99.90
22185;DHT22;11258;52.516;13.318;2022-08-01T05:22:26;21.10;99.90
22185;DHT22;11258;52.516;13.318;2022-08-01T05:24:52;21.20;99.90
22185;DHT22;11258;52.516;13.318;2022-08-01T05:27:18;21.40;99.90
22185;DHT22;11258;52.516;13.318;2022-08-01T05:29:44;21.40;99.90
22185;DHT22;11258;52.516;13.318;2022-08-01T05:32:09;21.40;99.90
22185;DHT22;11258;52.516;13.318;2022-08-01T05:34:35;21.50;99.90
22185;DHT22;11258;52.516;13.318;2022-08-01T05:37:01;21.60;99.90
22185;DHT22;11258;52.516;13.318;2022-08-01T05:39:26;21.50;99.90
22185;DHT22;11258;52.516;13.318;2022-08-01T05:41:52;21.50;99.90
22185;DHT22;11258;52.516;13.318;2022-08-01T05:44:17;21.60;99.90
22185;DHT22;11258;52.516;13.318;2022-08-01T05:46:43;21.70;99.90
22185;DHT22;11258;52.516;13.318;2022-08-01T05:49:08;21.70;99.90
22185;DHT22;11258;52.516;13.318;2022-08-01T05:51:34;21.70;99.90
22185;DHT22;11258;52.516;13.318;2022-08-01T05:54:00;21.70;99.90
22185;DHT22;11258;52.516;13.318;2022-08-01T05:56:25;21.70;99.90
22185;DHT22;11258;52.516;13.318;2022-08-01T05:58:51;21.50;99.90
22185;DHT22;11258;52.516;13.318;2022-08-01T06:01:17;21.60;99.90
22185;DHT22;11258;52.516;13.318;2022-08-01T06:03:44;21.50;99.90
22185;DHT22;11258;52.516;13.318;2022-08-01T06:06:09;21.50;99.90
22185;DHT22;11258;52.516;13.318;2022-08-01T06:08:35;21.40;99.90
22185;DHT22;11258;52.516;13.318;2022-08-01T06:11:01;21.30;99.90
22185;DHT22;11258;52.516;13.318;2022-08-01T06:13:27;21.40;99.90
22185;DHT22;11258;52.516;13.318;2022-08-01T06:15:52;21.40;99.90
22185;DHT22;11258;52.516;13.318;2022-08-01T06:18:19;21.50;99.90
22185;DHT22;11258;52.516;13.318;2022-08-01T06:20:44;21.50;99.90
22185;DHT22;11258;52.516;13.318;2022-08-01T06:23:10;21.50;99.90
22185;DHT22;11258;52.516;13.318;2022-08-01T06:25:36;21.60;99.90
22185;DHT22;11258;52.516;13.318;2022-08-01T06:28:02;21.70;99.90
22185;DHT22;11258;52.516;13.318;2022-08-01T06:30:28;21.80;99.90
22185;DHT22;11258;52.516;13.318;2022-08-01T06:32:54;21.80;99.90
22185;DHT22;11258;52.516;13.318;2022-08-01T06:35:21;21.90;99.90
22185;DHT22;11258;52.516;13.318;2022-08-01T06:37:47;22.00;99.90
22185;DHT22;11258;52.516;13.318;2022-08-01T06:40:14;22.20;99.90
22185;DHT22;11258;52.516;13.318;2022-08-01T06:42:40;22.20;99.90
22185;DHT22;11258;52.516;13.318;2022-08-01T06:45:08;22.40;99.90
22185;DHT22;11258;52.516;13.318;2022-08-01T06:47:35;22.50;99.90
22185;DHT22;11258;52.516;13.318;2022-08-01T06:50:01;22.60;99.90
22185;DHT22;11258;52.516;13.318;2022-08-01T06:52:26;22.80;99.90
22185;DHT22;11258;52.516;13.318;2022-08-01T06:54:52;22.80;99.90
22185;DHT22;11258;52.516;13.318;2022-08-01T06:57:18;22.80;99.90
22185;DHT22;11258;52.516;13.318;2022-08-01T06:59:44;22.50;99.90
22185;DHT22;11258;52.516;13.318;2022-08-01T07:02:09;22.50;99.90
22185;DHT22;11258;52.516;13.318;2022-08-01T07:04:35;22.40;99.90
22185;DHT22;11258;52.516;13.318;2022-08-01T07:07:01;22.40;99.90
22185;DHT22;11258;52.516;13.318;2022-08-01T07:09:27;22.40;99.90
22185;DHT22;11258;52.516;13.318;2022-08-01T07:11:53;22.40;99.90
22185;DHT22;11258;52.516;13.318;2022-08-01T07:14:20;22.40;99.90
22185;DHT22;11258;52.516;13.318;2022-08-01T07:16:45;22.30;99.90
22185;DHT22;11258;52.516;13.318;2022-08-01T07:19:11;22.20;99.90
22185;DHT22;11258;52.516;13.318;2022-08-01T07:21:37;22.20;99.90
22185;DHT22;11258;52.516;13.318;2022-08-01T07:24:04;22.10;99.90
22185;DHT22;11258;52.516;13.318;2022-08-01T07:26:30;22.20;99.90
22185;DHT22;11258;52.516;13.318;2022-08-01T07:28:56;22.30;99.90
22185;DHT22;11258;52.516;13.318;2022-08-01T07:31:22;22.30;99.90
22185;DHT22;11258;52.516;13.318;2022-08-01T07:33:48;22.40;99.90
22185;DHT22;11258;52.516;13.318;2022-08-01T07:36:14;22.50;99.90
22185;DHT22;11258;52.516;13.318;2022-08-01T07:38:40;22.50;99.90
22185;DHT22;11258;52.516;13.318;2022-08-01T07:41:05;22.70;99.90
22185;DHT22;11258;52.516;13.318;2022-08-01T07:43:31;22.80;99.90
22185;DHT22;11258;52.516;13.318;2022-08-01T07:45:56;23.00;99.90
22185;DHT22;11258;52.516;13.318;2022-08-01T07:48:22;23.20;99.90
22185;DHT22;11258;52.516;13.318;2022-08-01T07:50:50;23.10;99.90
22185;DHT22;11258;52.516;13.318;2022-08-01T07:53:16;23.20;99.90
22185;DHT22;11258;52.516;13.318;2022-08-01T07:55:42;23.10;99.90
22185;DHT22;11258;52.516;13.318;2022-08-01T07:58:07;23.10;99.90
22185;DHT22;11258;52.516;13.318;2022-08-01T08:00:33;22.90;99.90
22185;DHT22;11258;52.516;13.318;2022-08-01T08:02:58;22.80;99.90
22185;DHT22;11258;52.516;13.318;2022-08-01T08:05:25;22.60;99.90
22185;DHT22;11258;52.516;13.318;2022-08-01T08:07:51;22.40;99.90
22185;DHT22;11258;52.516;13.318;2022-08-01T08:10:17;22.10;99.90
22185;DHT22;11258;52.516;13.318;2022-08-01T08:12:42;21.90;99.90
22185;DHT22;11258;52.516;13.318;2022-08-01T08:15:09;22.00;99.90
22185;DHT22;11258;52.516;13.318;2022-08-01T08:17:34;22.00;99.90
22185;DHT22;11258;52.516;13.318;2022-08-01T08:20:01;22.10;99.90
22185;DHT22;11258;52.516;13.318;2022-08-01T08:22:27;22.20;99.90
22185;DHT22;11258;52.516;13.318;2022-08-01T08:24:52;22.40;99.90
22185;DHT22;11258;52.516;13.318;2022-08-01T08:27:18;22.60;99.90
22185;DHT22;11258;52.516;13.318;2022-08-01T08:29:44;22.80;99.90
22185;DHT22;11258;52.516;13.318;2022-08-01T08:32:09;22.70;99.90
22185;DHT22;11258;52.516;13.318;2022-08-01T08:34:35;22.70;99.90
22185;DHT22;11258;52.516;13.318;2022-08-01T08:37:01;22.70;99.90
22185;DHT22;11258;52.516;13.318;2022-08-01T08:39:27;22.80;99.90
22185;DHT22;11258;52.516;13.318;2022-08-01T08:41:59;22.90;99.90
22185;DHT22;11258;52.516;13.318;2022-08-01T08:44:25;23.00;99.90
22185;DHT22;11258;52.516;13.318;2022-08-01T08:46:51;22.80;99.90
22185;DHT22;11258;52.516;13.318;2022-08-01T08:49:25;22.70;99.90
22185;DHT22;11258;52.516;13.318;2022-08-01T08:51:52;22.70;99.90
22185;DHT22;11258;52.516;13.318;2022-08-01T08:54:21;23.00;99.90
22185;DHT22;11258;52.516;13.318;2022-08-01T08:56:48;23.30;99.90
22185;DHT22;11258;52.516;13.318;2022-08-01T08:59:14;23.90;99.90
22185;DHT22;11258;52.516;13.318;2022-08-01T09:01:40;24.40;99.90
22185;DHT22;11258;52.516;13.318;2022-08-01T09:04:06;24.80;99.90
22185;DHT22;11258;52.516;13.318;2022-08-01T09:06:32;24.90;99.90
22185;DHT22;11258;52.516;13.318;2022-08-01T09:08:58;24.40;99.90
22185;DHT22;11258;52.516;13.318;2022-08-01T09:11:24;24.20;99.90
22185;DHT22;11258;52.516;13.318;2022-08-01T09:14:12;24.00;99.90
22185;DHT22;11258;52.516;13.318;2022-08-01T09:16:41;23.70;99.90
22185;DHT22;11258;52.516;13.318;2022-08-01T09:19:18;23.50;99.90
22185;DHT22;11258;52.516;13.318;2022-08-01T09:21:57;23.30;99.90
22185;DHT22;11258;52.516;13.318;2022-08-01T09:24:25;23.40;99.90
22185;DHT22;11258;52.516;13.318;2022-08-01T09:26:51;23.50;99.90
22185;DHT22;11258;52.516;13.318;2022-08-01T09:29:20;23.50;99.90
22185;DHT22;11258;52.516;13.318;2022-08-01T09:31:46;23.30;99.90
22185;DHT22;11258;52.516;13.318;2022-08-01T09:34:12;23.50;99.90
22185;DHT22;11258;52.516;13.318;2022-08-01T09:36:46;23.60;99.90
22185;DHT22;11258;52.516;13.318;2022-08-01T09:39:14;23.50;99.90
22185;DHT22;11258;52.516;13.318;2022-08-01T09:41:40;23.50;99.90
22185;DHT22;11258;52.516;13.318;2022-08-01T09:44:06;23.40;99.90
22185;DHT22;11258;52.516;13.318;2022-08-01T09:46:31;23.20;99.90
22185;DHT22;11258;52.516;13.318;2022-08-01T09:49:05;23.20;99.90
22185;DHT22;11258;52.516;13.318;2022-08-01T09:51:37;23.00;99.90
22185;DHT22;11258;52.516;13.318;2022-08-01T09:54:05;23.00;99.90
22185;DHT22;11258;52.516;13.318;2022-08-01T09:56:38;23.00;99.90
22185;DHT22;11258;52.516;13.318;2022-08-01T09:59:04;22.70;99.90
22185;DHT22;11258;52.516;13.318;2022-08-01T10:01:43;22.80;99.90
22185;DHT22;11258;52.516;13.318;2022-08-01T10:04:14;22.90;99.90
22185;DHT22;11258;52.516;13.318;2022-08-01T10:06:42;23.20;99.90
22185;DHT22;11258;52.516;13.318;2022-08-01T10:09:09;23.50;99.90
22185;DHT22;11258;52.516;13.318;2022-08-01T10:11:36;23.80;99.90
22185;DHT22;11258;52.516;13.318;2022-08-01T10:14:05;24.00;99.90
22185;DHT22;11258;52.516;13.318;2022-08-01T10:16:32;24.20;99.90
22185;DHT22;11258;52.516;13.318;2022-08-01T10:18:59;24.20;99.90
22185;DHT22;11258;52.516;13.318;2022-08-01T10:21:27;24.30;99.90
22185;DHT22;11258;52.516;13.318;2022-08-01T10:23:54;24.20;99.90
22185;DHT22;11258;52.516;13.318;2022-08-01T10:26:21;24.30;99.90
22185;DHT22;11258;52.516;13.318;2022-08-01T10:28:50;24.30;99.90
22185;DHT22;11258;52.516;13.318;2022-08-01T10:31:17;24.10;99.90
22185;DHT22;11258;52.516;13.318;2022-08-01T10:33:44;24.00;99.90
22185;DHT22;11258;52.516;13.318;2022-08-01T10:36:10;24.00;99.90
22185;DHT22;11258;52.516;13.318;2022-08-01T10:38:36;23.70;99.90
22185;DHT22;11258;52.516;13.318;2022-08-01T10:41:03;23.60;99.90
22185;DHT22;11258;52.516;13.318;2022-08-01T10:43:29;23.70;99.90
22185;DHT22;11258;52.516;13.318;2022-08-01T10:45:55;23.70;99.90
22185;DHT22;11258;52.516;13.318;2022-08-01T10:48:26;23.80;99.90
22185;DHT22;11258;52.516;13.318;2022-08-01T10:50:54;23.90;99.90
22185;DHT22;11258;52.516;13.318;2022-08-01T10:53:24;23.70;99.90
22185;DHT22;11258;52.516;13.318;2022-08-01T10:58:21;24.10;99.90
22185;DHT22;11258;52.516;13.318;2022-08-01T11:00:47;24.30;99.90
22185;DHT22;11258;52.516;13.318;2022-08-01T11:03:13;24.60;99.90
22185;DHT22;11258;52.516;13.318;2022-08-01T11:05:42;24.70;99.90
22185;DHT22;11258;52.516;13.318;2022-08-01T11:08:22;24.30;99.90
22185;DHT22;11258;52.516;13.318;2022-08-01T11:10:48;24.30;99.90
22185;DHT22;11258;52.516;13.318;2022-08-01T11:16:39;24.40;99.90
22185;DHT22;11258;52.516;13.318;2022-08-01T11:19:06;24.10;99.90
22185;DHT22;11258;52.516;13.318;2022-08-01T11:27:20;23.60;99.90
22185;DHT22;11258;52.516;13.318;2022-08-01T11:32:56;23.50;99.90
22185;DHT22;11258;52.516;13.318;2022-08-01T11:35:23;23.60;99.90
22185;DHT22;11258;52.516;13.318;2022-08-01T11:37:50;23.70;99.90
22185;DHT22;11258;52.516;13.318;2022-08-01T11:42:48;23.50;99.90
22185;DHT22;11258;52.516;13.318;2022-08-01T11:45:14;23.50;99.90
22185;DHT22;11258;52.516;13.318;2022-08-01T11:47:48;23.80;99.90
22185;DHT22;11258;52.516;13.318;2022-08-01T11:53:03;24.40;99.90
22185;DHT22;11258;52.516;13.318;2022-08-01T11:55:29;24.60;99.90
22185;DHT22;11258;52.516;13.318;2022-08-01T11:58:02;24.20;99.90
22185;DHT22;11258;52.516;13.318;2022-08-01T12:00:28;24.20;99.90
22185;DHT22;11258;52.516;13.318;2022-08-01T12:03:02;24.30;99.90
22185;DHT22;11258;52.516;13.318;2022-08-01T12:05:29;24.30;99.90
22185;DHT22;11258;52.516;13.318;2022-08-01T12:07:56;24.50;99.90
22185;DHT22;11258;52.516;13.318;2022-08-01T12:10:24;24.80;99.90
22185;DHT22;11258;52.516;13.318;2022-08-01T12:12:52;25.10;99.90
22185;DHT22;11258;52.516;13.318;2022-08-01T12:15:20;25.30;99.90
22185;DHT22;11258;52.516;13.318;2022-08-01T12:17:58;25.30;99.90
22185;DHT22;11258;52.516;13.318;2022-08-01T12:20:29;25.50;99.90
22185;DHT22;11258;52.516;13.318;2022-08-01T12:22:57;25.60;99.90
22185;DHT22;11258;52.516;13.318;2022-08-01T12:25:23;26.10;99.90
22185;DHT22;11258;52.516;13.318;2022-08-01T12:27:49;26.10;99.90
22185;DHT22;11258;52.516;13.318;2022-08-01T12:30:17;25.90;99.90
22185;DHT22;11258;52.516;13.318;2022-08-01T12:32:47;26.10;99.90
22185;DHT22;11258;52.516;13.318;2022-08-01T12:35:18;26.20;99.90
22185;DHT22;11258;52.516;13.318;2022-08-01T12:37:47;26.20;99.90
22185;DHT22;11258;52.516;13.318;2022-08-01T12:40:27;26.40;99.90
22185;DHT22;11258;52.516;13.318;2022-08-01T12:42:55;26.40;99.90
22185;DHT22;11258;52.516;13.318;2022-08-01T12:45:25;26.50;99.90
22185;DHT22;11258;52.516;13.318;2022-08-01T12:47:52;26.60;99.90
22185;DHT22;11258;52.516;13.318;2022-08-01T12:50:21;26.80;99.90
22185;DHT22;11258;52.516;13.318;2022-08-01T12:52:48;26.60;99.90
22185;DHT22;11258;52.516;13.318;2022-08-01T12:55:22;26.50;99.90
22185;DHT22;11258;52.516;13.318;2022-08-01T12:58:02;26.50;99.90
22185;DHT22;11258;52.516;13.318;2022-08-01T13:00:29;26.70;99.90
22185;DHT22;11258;52.516;13.318;2022-08-01T13:03:08;26.80;99.90
22185;DHT22;11258;52.516;13.318;2022-08-01T13:08:12;26.30;99.90
22185;DHT22;11258;52.516;13.318;2022-08-01T13:10:38;25.80;99.90
22185;DHT22;11258;52.516;13.318;2022-08-01T13:13:03;25.40;99.90
22185;DHT22;11258;52.516;13.318;2022-08-01T13:15:35;25.20;99.90
22185;DHT22;11258;52.516;13.318;2022-08-01T13:18:27;25.00;99.90
22185;DHT22;11258;52.516;13.318;2022-08-01T13:23:38;24.80;99.90
22185;DHT22;11258;52.516;13.318;2022-08-01T13:26:05;24.80;99.90
22185;DHT22;11258;52.516;13.318;2022-08-01T13:28:31;24.80;99.90
22185;DHT22;11258;52.516;13.318;2022-08-01T13:30:59;24.90;99.90
22185;DHT22;11258;52.516;13.318;2022-08-01T13:33:27;25.00;99.90
22185;DHT22;11258;52.516;13.318;2022-08-01T13:35:55;25.20;99.90
22185;DHT22;11258;52.516;13.318;2022-08-01T13:38:21;25.30;99.90
22185;DHT22;11258;52.516;13.318;2022-08-01T13:41:07;25.40;99.90
22185;DHT22;11258;52.516;13.318;2022-08-01T13:43:33;25.30;99.90
22185;DHT22;11258;52.516;13.318;2022-08-01T13:46:00;25.10;99.90
22185;DHT22;11258;52.516;13.318;2022-08-01T13:48:28;24.80;99.90
22185;DHT22;11258;52.516;13.318;2022-08-01T13:50:53;24.60;99.90
22185;DHT22;11258;52.516;13.318;2022-08-01T13:53:19;24.50;99.90
22185;DHT22;11258;52.516;13.318;2022-08-01T13:55:45;24.70;99.90
22185;DHT22;11258;52.516;13.318;2022-08-01T13:58:10;25.00;99.90
22185;DHT22;11258;52.516;13.318;2022-08-01T14:00:36;25.20;99.90
22185;DHT22;11258;52.516;13.318;2022-08-01T14:03:01;25.40;99.90
22185;DHT22;11258;52.516;13.318;2022-08-01T14:05:27;25.50;99.90
22185;DHT22;11258;52.516;13.318;2022-08-01T14:07:52;25.60;99.90
22185;DHT22;11258;52.516;13.318;2022-08-01T14:10:18;25.80;99.90
22185;DHT22;11258;52.516;13.318;2022-08-01T14:12:43;26.00;99.90
22185;DHT22;11258;52.516;13.318;2022-08-01T14:15:09;26.30;99.90
22185;DHT22;11258;52.516;13.318;2022-08-01T14:17:35;26.30;99.90
22185;DHT22;11258;52.516;13.318;2022-08-01T14:20:00;26.10;99.90
22185;DHT22;11258;52.516;13.318;2022-08-01T14:22:27;26.10;99.90
22185;DHT22;11258;52.516;13.318;2022-08-01T14:24:53;26.10;99.90
22185;DHT22;11258;52.516;13.318;2022-08-01T14:27:18;26.30;99.90
22185;DHT22;11258;52.516;13.318;2022-08-01T14:29:44;26.40;99.90
22185;DHT22;11258;52.516;13.318;2022-08-01T14:32:11;26.40;99.90
22185;DHT22;11258;52.516;13.318;2022-08-01T14:34:37;26.20;99.90
22185;DHT22;11258;52.516;13.318;2022-08-01T14:37:03;26.00;99.90
22185;DHT22;11258;52.516;13.318;2022-08-01T14:39:28;25.90;99.90
22185;DHT22;11258;52.516;13.318;2022-08-01T14:41:54;25.90;99.90
22185;DHT22;11258;52.516;13.318;2022-08-01T14:44:19;26.00;99.90
22185;DHT22;11258;52.516;13.318;2022-08-01T14:46:45;26.10;99.90
22185;DHT22;11258;52.516;13.318;2022-08-01T14:49:11;26.30;99.90
22185;DHT22;11258;52.516;13.318;2022-08-01T14:51:37;26.40;99.90
22185;DHT22;11258;52.516;13.318;2022-08-01T14:54:04;26.40;99.90
22185;DHT22;11258;52.516;13.318;2022-08-01T14:56:30;26.10;99.90
22185;DHT22;11258;52.516;13.318;2022-08-01T14:58:55;25.90;99.90
22185;DHT22;11258;52.516;13.318;2022-08-01T15:01:21;25.70;99.90
22185;DHT22;11258;52.516;13.318;2022-08-01T15:03:46;25.50;99.90
22185;DHT22;11258;52.516;13.318;2022-08-01T15:06:13;25.50;99.90
22185;DHT22;11258;52.516;13.318;2022-08-01T15:08:39;25.30;99.90
22185;DHT22;11258;52.516;13.318;2022-08-01T15:11:05;25.30;99.90
22185;DHT22;11258;52.516;13.318;2022-08-01T15:13:31;25.20;99.90
22185;DHT22;11258;52.516;13.318;2022-08-01T15:15:56;25.20;99.90
22185;DHT22;11258;52.516;13.318;2022-08-01T15:18:23;25.30;99.90
22185;DHT22;11258;52.516;13.318;2022-08-01T15:20:48;25.30;99.90
22185;DHT22;11258;52.516;13.318;2022-08-01T15:23:14;25.40;99.90
22185;DHT22;11258;52.516;13.318;2022-08-01T15:25:39;25.50;99.90
22185;DHT22;11258;52.516;13.318;2022-08-01T15:28:05;25.40;99.90
22185;DHT22;11258;52.516;13.318;2022-08-01T15:30:30;25.40;99.90
22185;DHT22;11258;52.516;13.318;2022-08-01T15:32:58;25.40;99.90
22185;DHT22;11258;52.516;13.318;2022-08-01T15:35:23;25.40;99.90
22185;DHT22;11258;52.516;13.318;2022-08-01T15:37:49;25.50;99.90
22185;DHT22;11258;52.516;13.318;2022-08-01T15:40:14;25.50;99.90
22185;DHT22;11258;52.516;13.318;2022-08-01T15:42:40;25.40;99.90
22185;DHT22;11258;52.516;13.318;2022-08-01T15:45:06;25.30;99.90
22185;DHT22;11258;52.516;13.318;2022-08-01T15:47:32;25.30;99.90
22185;DHT22;11258;52.516;13.318;2022-08-01T15:49:58;25.40;99.90